Station: Loxton

  Atmospheric Gas Attenuation - ITU Rec 676-11   --------------- db/100km ---------------
Date Time Temp RH % AH g/m3 Dew Point Wind Direction Speed kph Gust kph Barometer mB Rainfall Since 9am 24GHz 47GHz 76GHz 122GHz 134GHz 241GHz
24 19:20 36.5 33 14.11 17.8 9 11 1001.1 0 29.8 27.1 47.5 125.6 131.8 458.0
24 19:10 36.5 32 13.68 17.2 9 9 1001.1 0 28.9 26.5 46.0 121.6 126.9 440.8
24 19:00 36.8 31 13.46 17 11 15 1001 0 28.5 26.1 45.1 119.1 123.9 430.5
24 18:50 37.2 34 15.07 19 7 9 1001 0 31.7 28.3 50.5 133.5 141.6 492.6
24 18:40 37.6 31 14.02 17.8 11 13 1001 0 29.6 26.7 46.6 123.0 128.9 448.2
24 18:30 37.1 35 15.43 19.1 9 13 1001 0 32.5 28.8 51.8 137.1 146.0 507.9
24 18:20 38 30 13.85 17.5 11 13 1001 0 29.2 26.3 45.8 120.9 126.4 439.4
24 18:10 37.9 32 14.7 18.6 11 13 1001.1 0 30.9 27.5 48.8 128.9 136.2 473.5
24 18:00 39 29 14.08 17.9 9 13 1001.1 0 29.6 26.3 46.0 121.5 127.4 443.0
24 17:50 39.4 25 12.39 16.3 11 15 1001.2 0 26.1 24.0 40.2 106.2 108.6 377.2
24 17:40 39.3 26 12.82 16.6 11 13 1001.2 0 27.0 24.6 41.7 110.0 113.3 393.6
24 17:30 39.4 26 12.89 16.6 15 22 1001.3 0 27.1 24.6 41.8 110.5 113.9 395.8
24 17:20 39.8 25 12.64 16.3 19 26 1001.4 0 26.6 24.2 40.8 107.8 110.7 384.7
24 17:10 40.5 24 12.57 16 19 20 1001.4 0 26.4 23.9 40.3 106.3 109.0 378.9
24 17:00 40.7 24 12.7 16.3 13 20 1001.4 0 26.7 24.1 40.6 107.2 110.1 382.7
24 16:50 40.9 24 12.82 16.4 11 15 1001.6 0 26.9 24.2 40.9 107.9 111.1 386.2
24 16:40 41.3 22 11.99 15.5 17 19 1001.6 0 25.2 23.0 38.1 100.5 102.1 354.6
24 16:30 41.3 22 11.99 15.7 17 30 1001.8 0 25.2 23.0 38.1 100.5 102.1 354.6
24 16:20 41.5 21 11.56 15.3 13 17 1001.8 0 24.3 22.4 36.7 96.8 97.5 338.7
24 16:10 42.4 22 12.66 16.3 22 28 1002 0 26.5 23.6 39.7 104.7 107.5 373.7
24 16:00 42.1 20 11.34 14.9 20 32 1002.1 0 23.8 22.0 35.8 94.4 94.7 328.7
24 15:50 41.8 20 11.18 14.8 19 20 1002.1 0 23.5 21.9 35.4 93.4 93.5 324.4
24 15:40 42.3 20 11.45 14.9 20 26 1002.2 0 24.1 22.1 36.0 95.0 95.6 331.8
24 15:30 43 19 11.26 14.7 19 43 1002.3 0 23.6 21.7 35.2 92.8 92.9 322.6
24 15:20 42.1 19 10.78 14.1 17 24 1002.5 0 22.7 21.4 34.1 90.0 89.3 309.7
24 15:10 41 21 11.28 14.5 13 15 1002.8 0 23.8 22.2 36.1 95.2 95.4 331.1
24 15:00 42.8 18 10.57 13.8 17 30 1002.8 0 22.3 21.0 33.3 87.6 86.5 300.2
24 14:50 43 18 10.67 14.2 19 24 1003.1 0 22.4 21.0 33.5 88.2 87.3 302.9
24 14:40 42.4 19 10.94 14.1 15 20 1003.2 0 23.0 21.5 34.5 91.0 90.5 314.2
24 14:30 42.8 18 10.57 14.1 17 35 1003.4 0 22.3 21.0 33.3 87.7 86.6 300.3
24 14:20 42.1 17 9.64 12 24 30 1003.5 0 20.4 20.0 30.9 81.2 78.5 271.8
24 14:10 42.9 17 10.03 13.2 19 22 1003.7 0 21.2 20.3 31.7 83.5 81.4 282.1
24 14:00 42.4 17 9.78 12.8 17 28 1003.8 0 20.7 20.1 31.2 82.0 79.5 275.6
24 13:50 41.9 17 9.55 12.4 22 28 1004.1 0 20.2 20.0 30.7 80.8 77.9 269.7
24 13:40 41.3 17 9.27 11.3 11 11 1004.2 0 19.7 19.8 30.1 79.2 75.8 262.3
24 13:30 41.8 17 9.5 12 22 46 1004.5 0 20.1 20.0 30.6 80.5 77.5 268.4
24 13:20 42 15 8.46 10.6 15 20 1004.6 0 18.0 18.7 27.7 72.6 67.8 234.3
24 13:10 41.9 15 8.42 10.4 20 24 1004.8 0 18.0 18.7 27.6 72.4 67.5 233.3
24 13:00 40.7 16 8.46 10.1 22 39 1004.9 0 18.1 19.0 28.1 73.7 68.9 237.9
24 12:50 41 15 8.05 9.5 19 20 1005.1 0 17.3 18.5 26.9 70.5 64.9 224.0
24 12:40 40.8 14 7.44 8.5 24 32 1005.4 0 16.0 17.8 25.3 66.2 59.6 205.4
24 12:30 40.6 13 6.84 6.7 20 32 1005.4 0 14.8 17.2 23.8 62.1 54.5 187.2
24 12:20 40.2 12 6.19 6.1 13 19 1005.6 0 13.5 16.6 22.2 57.8 49.1 168.3
24 12:10 39.5 13 6.48 6 17 24 1005.8 0 14.2 17.0 23.1 60.3 52.0 178.6
24 12:00 39 13 6.31 6.2 13 20 1006 0 13.8 16.9 22.8 59.5 50.9 174.4
24 11:50 37.9 15 6.89 7.2 9 13 1006.2 0 15.0 17.8 24.7 64.4 56.7 194.9
24 11:40 37.4 13 5.82 4.3 17 20 1006.3 0 12.9 16.7 21.9 57.1 47.5 162.4
24 11:30 37.2 14 6.2 5.7 13 20 1006.4 0 13.7 17.1 23.0 60.0 51.0 174.6
24 11:20 36 17 7.08 7.5 9 11 1006.6 0 15.5 18.4 25.8 67.3 59.8 205.5
24 11:10 35.7 17 6.97 7.5 9 11 1006.6 0 15.3 18.3 25.5 66.7 59.0 202.6
24 11:00 34.8 17 6.65 6.3 11 17 1006.7 0 14.7 18.1 24.9 65.0 56.6 194.2
24 10:50 34.1 18 6.79 6.8 11 15 1006.8 0 15.0 18.4 25.5 66.6 58.4 200.4
24 10:40 33.8 18 6.69 6.2 11 13 1006.9 0 14.8 18.3 25.3 66.1 57.7 197.8
24 10:30 33.8 17 6.31 5.6 13 20 1007 0 14.0 17.9 24.2 63.2 54.1 185.3
24 10:20 33.9 16 5.97 4.7 15 20 1007 0 13.3 17.5 23.3 60.6 50.9 174.0
24 10:10 33.7 15 5.54 3.6 19 22 1007.1 0 12.4 17.0 22.1 57.6 47.1 160.6
24 10:00 33.7 14 5.17 3.2 17 22 1007.2 0 11.7 16.6 21.1 54.9 43.8 148.9
24 09:50 33.6 14 5.15 2.9 15 17 1007.3 0 11.6 16.6 21.1 54.8 43.6 148.5
24 09:40 32.4 18 6.21 5 11 17 1007.4 0 13.8 18.1 24.4 63.5 54.1 185.1
24 09:30 31.6 22 7.27 7.3 11 15 1007.4 0 16.0 19.5 27.7 72.5 64.9 223.1
24 09:20 30.4 25 7.75 8.6 9 9 1007.5 0 17.1 20.3 29.6 77.5 70.7 243.4
24 09:10 30.2 25 7.67 8.3 11 13 1007.5 0 16.9 20.3 29.4 77.0 70.1 241.1
24 09:00 29.1 27 7.8 8.6 11 15 1007.5 0 17.2 20.7 30.2 79.1 72.4 249.0
24 08:50 27.4 32 8.42 9.3 13 13 1007.6 0 18.6 21.9 32.8 86.1 80.6 277.6
24 08:40 26.8 35 8.91 10.2 9 11 1007.5 0 19.6 22.7 34.7 91.2 86.6 298.7
24 08:30 26.2 35 8.62 9.8 11 13 1007.5 0 19.1 22.4 34.0 89.2 84.0 289.5
24 08:20 26.3 33 8.17 8.7 9 11 1007.5 0 18.1 21.8 32.4 85.1 78.9 271.7
24 08:10 25.5 34 8.05 8.7 6 7 1007.5 0 17.9 21.8 32.4 84.8 78.4 269.7
24 08:00 24.9 39 8.93 10.1 6 9 1007.6 0 19.8 23.2 35.6 93.5 88.9 306.5
24 07:50 24.2 39 8.58 9.6 7 7 1007.6 0 19.1 22.9 34.7 91.0 85.6 295.1
24 07:40 23.7 37 7.91 8.3 7 7 1007.7 0 17.7 22.1 32.6 85.4 78.6 270.2
24 07:30 23 37 7.6 7.5 6 11 1007.6 0 17.1 21.8 31.8 83.3 75.7 260.3
24 07:20 22 43 8.34 8.9 0 0 1007.6 0 18.7 23.1 34.8 91.3 85.2 293.3
24 07:10 21.9 41 7.91 8.2 6 6 1007.6 0 17.8 22.5 33.3 87.3 80.3 276.2
24 07:00 21.7 41 7.82 7.9 7 9 1007.6 0 17.6 22.4 33.1 86.7 79.5 273.3
24 06:50 21.5 46 8.67 9.4 7 9 1007.4 0 19.4 23.7 36.2 95.0 89.6 308.7
24 06:40 21.8 41 7.87 8.1 9 11 1007.3 0 17.7 22.4 33.2 87.0 79.9 274.9
24 06:30 22 39 7.57 7.6 9 17 1007.2 0 17.1 22.0 32.1 84.0 76.3 262.2
24 06:20 21.9 40 7.72 7.7 9 11 1007.1 0 17.4 22.2 32.6 85.5 78.1 268.5
24 06:10 22 38 7.37 7.1 11 13 1007.1 0 16.6 21.7 31.4 82.2 74.0 254.2
24 06:00 21.7 41 7.82 8 9 13 1007.1 0 17.6 22.4 33.1 86.7 79.5 273.1
24 05:50 22.1 37 7.22 7 11 13 1006.9 0 16.3 21.5 30.8 80.7 72.3 248.0
24 05:40 22.3 37 7.31 7 11 11 1006.8 0 16.5 21.5 31.1 81.3 73.1 250.9
24 05:30 22.5 36 7.19 7 13 15 1006.8 0 16.2 21.3 30.6 80.0 71.6 245.6
24 05:20 23.2 34 7.07 6.5 13 13 1006.7 0 16.0 21.0 29.9 78.3 69.6 238.8
24 04:50 22.7 35 7.07 6.5 15 17 1006.5 0 16.0 21.1 30.1 78.7 70.0 240.3
24 04:40 22.5 35 6.99 6.5 15 17 1006.5 0 15.8 21.0 29.9 78.2 69.3 237.7
24 04:30 21.5 39 7.35 7.1 13 17 1006.5 0 16.6 21.8 31.5 82.5 74.2 254.9
24 04:20 20 52 8.99 10 9 11 1006.5 0 20.1 24.5 38.0 99.8 95.1 328.0
24 04:10 19.8 55 9.39 10.6 11 11 1006.5 0 21.0 25.2 39.6 104.1 100.3 346.1
24 04:00 20.3 51 8.97 9.9 9 11 1006.6 0 20.1 24.4 37.8 99.3 94.6 325.9
24 03:50 20.7 51 9.18 10.2 9 11 1006.6 0 20.5 24.6 38.4 100.8 96.6 333.2
24 03:40 20.8 45 8.15 8.7 13 13 1006.8 0 18.3 23.1 34.6 90.7 84.2 289.6
24 03:30 20.8 49 8.87 9.9 7 9 1006.8 0 19.8 24.1 37.2 97.7 92.8 319.7
24 03:20 20.5 50 8.9 9.7 9 9 1006.8 0 19.9 24.3 37.4 98.3 93.5 322.2
24 03:10 20.6 46 8.23 8.6 9 9 1006.9 0 18.5 23.2 35.0 91.7 85.3 293.7
24 03:00 20.4 49 8.67 9.3 11 13 1007 0 19.4 23.9 36.7 96.2 90.8 312.9
24 02:50 21 47 8.61 9.4 11 11 1007.1 0 19.3 23.7 36.2 94.9 89.4 308.1
24 02:40 21.2 46 8.52 9.2 11 11 1007.2 0 19.1 23.5 35.8 93.8 88.2 303.6
24 02:30 21.2 44 8.15 8.7 13 15 1007.2 0 18.3 23.0 34.4 90.3 83.8 288.3

Last Refresh: 24-Jan-2021 19:35:48

Most of the information presented on this site is sourced from the Bureau of Meteorology.  Copyright in all material sourced from the Bureau of Meteorology resides with the Commonwealth of Australia.